createdAt,value
2023-03-07T00:01:08.909Z,8.00
2023-03-07T00:03:37.112Z,6.67
2023-03-07T00:06:09.060Z,5.00
2023-03-07T00:08:36.529Z,5.00
2023-03-07T00:11:06.521Z,5.00
2023-03-07T00:13:34.919Z,4.67
2023-03-07T00:16:11.171Z,4.00
2023-03-07T00:18:38.181Z,4.00
2023-03-07T00:21:08.788Z,5.00
2023-03-07T00:23:38.096Z,4.00
2023-03-07T00:26:07.488Z,4.00
2023-03-07T00:28:35.515Z,2.00
2023-03-07T00:31:05.674Z,2.00
2023-03-07T00:33:32.683Z,2.00
2023-03-07T00:36:02.211Z,4.00
2023-03-07T00:38:31.090Z,2.00
2023-03-07T00:41:06.436Z,2.00
2023-03-07T00:43:34.238Z,4.75
2023-03-07T00:46:01.891Z,3.00
2023-03-07T00:48:29.440Z,4.00
2023-03-07T00:50:57.355Z,4.00
2023-03-07T00:53:25.284Z,5.00
2023-03-07T00:55:55.924Z,5.00
2023-03-07T00:58:23.325Z,6.00
2023-03-07T01:00:50.641Z,8.00
2023-03-07T01:03:18.169Z,7.33
2023-03-07T01:05:45.415Z,4.00
2023-03-07T01:08:12.874Z,4.00
2023-03-07T01:10:39.908Z,2.00
2023-03-07T01:13:07.113Z,4.25
2023-03-07T01:15:34.091Z,4.25
2023-03-07T01:18:01.035Z,5.00
2023-03-07T01:20:28.010Z,4.00
2023-03-07T01:22:54.869Z,2.00
2023-03-07T01:25:21.770Z,5.50
2023-03-07T01:27:48.645Z,3.33
2023-03-07T01:30:15.700Z,5.00
2023-03-07T01:32:42.692Z,4.33
2023-03-07T01:35:09.808Z,5.00
2023-03-07T01:37:36.867Z,5.00
2023-03-07T01:40:05.063Z,5.00
2023-03-07T01:42:32.428Z,4.75
2023-03-07T01:45:04.823Z,5.00
2023-03-07T01:47:31.728Z,6.00
2023-03-07T01:50:01.222Z,5.00
2023-03-07T01:52:34.992Z,9.67
2023-03-07T01:55:11.229Z,4.75
2023-03-07T01:57:41.196Z,5.00
2023-03-07T02:00:14.608Z,4.25
2023-03-07T02:02:45.988Z,4.33
2023-03-07T02:05:27.541Z,2.00
2023-03-07T02:08:21.305Z,2.00
2023-03-07T02:11:10.059Z,5.00
2023-03-07T02:13:52.415Z,4.00
2023-03-07T02:16:34.412Z,2.00
2023-03-07T02:19:32.809Z,6.00
2023-03-07T02:22:36.528Z,9.00
2023-03-07T02:25:17.231Z,9.00
2023-03-07T02:27:46.274Z,8.00
2023-03-07T02:30:13.319Z,8.00
2023-03-07T02:32:40.542Z,0.50
2023-03-07T02:35:15.729Z,8.00
2023-03-07T02:37:46.330Z,4.00
2023-03-07T02:40:16.826Z,4.00
2023-03-07T02:42:46.869Z,6.67
2023-03-07T02:45:17.803Z,5.25
2023-03-07T02:47:45.767Z,4.33
2023-03-07T02:50:14.149Z,5.00
2023-03-07T02:52:41.579Z,4.67
2023-03-07T02:55:09.554Z,6.50
2023-03-07T02:57:36.592Z,4.00
2023-03-07T03:00:07.422Z,2.67
2023-03-07T03:02:34.774Z,0.50
2023-03-07T03:05:01.797Z,2.00
2023-03-07T03:07:28.761Z,2.67
2023-03-07T03:09:55.724Z,2.00
2023-03-07T03:12:22.659Z,4.00
2023-03-07T03:14:49.654Z,4.00
2023-03-07T03:17:17.221Z,5.00
2023-03-07T03:19:44.097Z,4.00
2023-03-07T03:22:11.277Z,5.00
2023-03-07T03:24:42.516Z,5.00
2023-03-07T03:27:10.312Z,4.00
2023-03-07T03:29:37.319Z,4.25
2023-03-07T03:32:04.619Z,1.00
2023-03-07T03:34:31.619Z,2.50
2023-03-07T03:36:58.481Z,4.00
2023-03-07T03:39:25.461Z,3.25
2023-03-07T03:41:52.399Z,4.25
2023-03-07T03:44:19.330Z,2.00
2023-03-07T03:46:48.559Z,2.00
2023-03-07T03:49:17.116Z,1.75
2023-03-07T03:51:44.021Z,2.00
2023-03-07T03:54:10.917Z,4.00
2023-03-07T03:56:37.919Z,1.00
2023-03-07T03:59:04.988Z,1.00
2023-03-07T04:01:31.925Z,1.00
2023-03-07T04:03:59.478Z,1.75
2023-03-07T04:06:29.883Z,2.00
2023-03-07T04:08:57.422Z,4.50
2023-03-07T04:11:25.135Z,2.00
2023-03-07T04:13:52.527Z,5.00
2023-03-07T04:16:20.401Z,5.00
2023-03-07T04:18:47.368Z,6.50
2023-03-07T04:21:14.549Z,4.50
2023-03-07T04:23:41.502Z,4.00
2023-03-07T04:26:10.119Z,4.00
2023-03-07T04:28:43.382Z,4.00
2023-03-07T04:31:15.175Z,6.00
2023-03-07T04:33:42.885Z,8.00
2023-03-07T04:36:10.984Z,8.50
2023-03-07T04:38:39.367Z,8.67
2023-03-07T04:41:13.800Z,5.00
2023-03-07T04:43:40.892Z,6.00
2023-03-07T04:46:09.171Z,5.00
2023-03-07T04:48:36.399Z,4.50
2023-03-07T04:51:03.705Z,5.00
2023-03-07T04:53:30.560Z,6.00
2023-03-07T04:56:01.857Z,4.00
2023-03-07T04:58:30.751Z,2.00
2023-03-07T05:00:58.235Z,5.00
2023-03-07T05:03:26.417Z,4.00
2023-03-07T05:05:53.622Z,5.00
2023-03-07T05:08:21.288Z,3.00
2023-03-07T05:10:48.275Z,4.50
2023-03-07T05:13:15.183Z,5.33
2023-03-07T05:15:42.163Z,4.50
2023-03-07T05:18:09.108Z,5.33
2023-03-07T05:20:36.207Z,8.25
2023-03-07T05:23:03.087Z,5.50
2023-03-07T05:25:29.954Z,5.75
2023-03-07T05:27:56.924Z,5.00
2023-03-07T05:30:23.818Z,5.00
2023-03-07T05:32:51.650Z,4.25
2023-03-07T05:35:19.131Z,4.00
2023-03-07T05:37:46.051Z,5.00
2023-03-07T05:40:14.321Z,5.00
2023-03-07T05:42:41.354Z,5.00
2023-03-07T05:45:09.400Z,3.75
2023-03-07T05:47:36.471Z,2.00
2023-03-07T05:50:03.936Z,2.00
2023-03-07T05:52:30.843Z,2.00
2023-03-07T05:54:57.741Z,2.00
2023-03-07T05:57:24.726Z,4.00
2023-03-07T05:59:51.770Z,4.00
2023-03-07T06:02:18.748Z,2.00
2023-03-07T06:04:47.197Z,5.00
2023-03-07T06:07:14.329Z,4.50
2023-03-07T06:09:41.361Z,5.25
2023-03-07T06:12:10.411Z,6.00
2023-03-07T06:14:37.377Z,6.00
2023-03-07T06:17:05.933Z,4.00
2023-03-07T06:19:34.156Z,8.00
2023-03-07T06:22:01.232Z,5.75
2023-03-07T06:24:28.219Z,6.50
2023-03-07T06:26:55.064Z,6.67
2023-03-07T06:29:22.240Z,6.00
2023-03-07T06:31:49.218Z,9.00
2023-03-07T06:34:16.200Z,6.67
2023-03-07T06:36:43.159Z,10.00
2023-03-07T06:39:10.125Z,11.67
2023-03-07T06:41:37.091Z,10.50
2023-03-07T06:44:04.263Z,12.00
2023-03-07T06:46:31.974Z,11.00
2023-03-07T06:48:58.928Z,10.00
2023-03-07T06:51:25.963Z,11.25
2023-03-07T06:53:52.873Z,10.67
2023-03-07T06:56:19.920Z,11.75
2023-03-07T06:58:46.911Z,11.00
2023-03-07T07:01:21.664Z,10.50
2023-03-07T07:03:48.895Z,11.25
2023-03-07T07:06:16.189Z,13.00
2023-03-07T07:08:43.208Z,9.67
2023-03-07T07:11:10.194Z,12.50
2023-03-07T07:13:37.113Z,11.00
2023-03-07T07:16:06.154Z,13.00
2023-03-07T07:18:33.725Z,11.00
2023-03-07T07:21:00.728Z,10.00
2023-03-07T07:23:27.900Z,18.67
2023-03-07T07:25:54.817Z,21.67
2023-03-07T07:28:22.100Z,16.33
2023-03-07T07:30:49.037Z,15.00
2023-03-07T07:33:16.255Z,18.75
2023-03-07T07:35:44.354Z,14.75
2023-03-07T07:38:12.045Z,16.25
2023-03-07T07:40:39.512Z,15.00
2023-03-07T07:43:06.678Z,16.75
2023-03-07T07:45:33.645Z,15.25
2023-03-07T07:48:00.542Z,14.00
2023-03-07T07:50:27.499Z,18.00
2023-03-07T07:52:54.715Z,21.00
2023-03-07T07:55:22.219Z,19.00
2023-03-07T07:57:49.152Z,20.25
2023-03-07T08:00:21.269Z,16.50
2023-03-07T08:02:52.370Z,16.00
2023-03-07T08:05:20.663Z,13.00
2023-03-07T08:07:48.297Z,12.00
2023-03-07T08:10:16.310Z,11.75
2023-03-07T08:12:44.941Z,12.00
2023-03-07T08:15:12.773Z,13.50
2023-03-07T08:17:39.693Z,14.75
2023-03-07T08:20:08.718Z,12.50
2023-03-07T08:22:38.500Z,11.50
2023-03-07T08:25:06.684Z,10.50
2023-03-07T08:27:33.680Z,14.00
2023-03-07T08:30:00.971Z,13.00
2023-03-07T08:32:28.508Z,11.50
2023-03-07T08:34:55.450Z,13.50
2023-03-07T08:37:22.339Z,13.25
2023-03-07T08:39:49.345Z,14.50
2023-03-07T08:42:16.244Z,16.00
2023-03-07T08:44:43.239Z,15.25
2023-03-07T08:47:11.648Z,12.00
2023-03-07T08:49:38.558Z,12.75
2023-03-07T08:52:05.748Z,11.00
2023-03-07T08:54:32.783Z,12.25
2023-03-07T08:57:00.690Z,17.25
2023-03-07T08:59:27.641Z,16.00
2023-03-07T09:01:56.839Z,16.50
2023-03-07T09:04:24.708Z,13.50
2023-03-07T09:06:51.760Z,17.25
2023-03-07T09:09:18.693Z,15.00
2023-03-07T09:11:45.660Z,16.25
2023-03-07T09:14:12.599Z,12.50
2023-03-07T09:16:39.674Z,17.75
2023-03-07T09:19:06.733Z,19.00
2023-03-07T09:21:33.659Z,19.75
2023-03-07T09:24:00.567Z,15.75
2023-03-07T09:26:27.487Z,18.00
2023-03-07T09:28:54.384Z,22.75
2023-03-07T09:31:21.464Z,21.00
2023-03-07T09:33:48.524Z,22.00
2023-03-07T09:36:16.587Z,21.25
2023-03-07T09:38:43.619Z,17.25
2023-03-07T09:41:41.262Z,23.25
2023-03-07T09:44:18.362Z,15.50
2023-03-07T09:46:54.260Z,19.00
2023-03-07T09:49:38.454Z,17.00
2023-03-07T09:52:14.679Z,21.00
2023-03-07T09:54:47.116Z,13.00
2023-03-07T09:57:26.559Z,21.00
2023-03-07T10:00:19.308Z,12.50
2023-03-07T10:02:52.643Z,17.25
2023-03-07T10:05:25.576Z,17.00
2023-03-07T10:07:53.455Z,16.50
2023-03-07T10:10:27.306Z,16.25
2023-03-07T10:13:09.532Z,17.00
2023-03-07T10:15:49.124Z,14.25
2023-03-07T10:18:34.390Z,12.75
2023-03-07T10:21:48.425Z,15.25
2023-03-07T10:24:27.541Z,17.50
2023-03-07T10:27:05.728Z,10.25
2023-03-07T10:29:54.993Z,14.00
2023-03-07T10:32:45.617Z,14.00
2023-03-07T10:35:12.470Z,11.75
2023-03-07T10:37:50.628Z,10.25
2023-03-07T10:40:26.001Z,13.00
2023-03-07T10:42:54.852Z,13.00
2023-03-07T10:45:22.213Z,12.50
2023-03-07T10:47:49.182Z,10.00
2023-03-07T10:50:38.560Z,12.00
2023-03-07T10:53:19.384Z,10.75
2023-03-07T10:55:46.969Z,12.00
2023-03-07T10:58:19.951Z,12.00
2023-03-07T11:00:57.600Z,7.00
2023-03-07T11:03:42.561Z,11.00
2023-03-07T11:06:28.852Z,11.00
2023-03-07T11:08:59.091Z,12.00
2023-03-07T11:11:32.274Z,12.00
2023-03-07T11:14:13.375Z,12.50
2023-03-07T11:16:50.873Z,12.25
2023-03-07T11:19:40.909Z,14.00
2023-03-07T11:22:33.834Z,13.00
2023-03-07T11:25:16.049Z,14.00
2023-03-07T11:27:45.792Z,9.25
2023-03-07T11:30:33.732Z,12.00
2023-03-07T11:33:10.016Z,10.25
2023-03-07T11:35:59.357Z,12.00
2023-03-07T11:38:40.782Z,15.50
2023-03-07T11:41:30.802Z,12.75
2023-03-07T11:44:01.067Z,12.00
2023-03-07T11:47:13.633Z,16.25
2023-03-07T11:49:55.518Z,11.25
2023-03-07T11:52:48.996Z,13.00
2023-03-07T11:55:27.192Z,11.75
2023-03-07T11:58:29.336Z,15.00
2023-03-07T12:00:59.162Z,14.00
2023-03-07T12:03:35.100Z,15.50
2023-03-07T12:06:10.206Z,12.75
2023-03-07T12:08:54.291Z,13.00
2023-03-07T12:11:58.563Z,12.25
2023-03-07T12:14:31.320Z,13.00
2023-03-07T12:17:07.351Z,12.50
2023-03-07T12:20:11.924Z,11.75
2023-03-07T12:23:04.971Z,13.25
2023-03-07T12:25:43.766Z,13.00
2023-03-07T12:28:27.225Z,10.00
2023-03-07T12:31:02.465Z,13.00
2023-03-07T12:33:51.763Z,11.25
2023-03-07T12:36:44.853Z,10.00
2023-03-07T12:39:39.755Z,12.00
2023-03-07T12:42:28.184Z,11.50
2023-03-07T12:45:20.181Z,13.00
2023-03-07T12:48:09.335Z,14.25
2023-03-07T12:50:52.819Z,12.25
2023-03-07T12:53:30.490Z,12.00
2023-03-07T12:56:16.483Z,12.75
2023-03-07T12:58:51.052Z,11.25
2023-03-07T13:01:28.126Z,13.25
2023-03-07T13:04:18.188Z,12.00
2023-03-07T13:06:46.574Z,14.00
2023-03-07T13:09:27.993Z,13.00
2023-03-07T13:12:20.458Z,12.75
2023-03-07T13:14:56.438Z,14.00
2023-03-07T13:17:35.006Z,13.75
2023-03-07T13:20:31.154Z,12.50
2023-03-07T13:23:11.089Z,15.00
2023-03-07T13:25:42.470Z,14.50
2023-03-07T13:28:46.797Z,14.50
2023-03-07T13:31:16.518Z,12.25
2023-03-07T13:33:44.203Z,11.50
2023-03-07T13:36:32.969Z,16.00
2023-03-07T13:39:00.099Z,14.00
2023-03-07T13:41:56.445Z,11.00
2023-03-07T13:44:38.698Z,14.00
2023-03-07T13:47:44.782Z,13.00
2023-03-07T13:50:38.311Z,12.75
2023-03-07T13:53:18.798Z,12.00
2023-03-07T13:55:51.111Z,13.00
2023-03-07T13:58:26.736Z,10.50
2023-03-07T14:00:58.571Z,13.25
2023-03-07T14:03:31.199Z,13.25
2023-03-07T14:06:08.588Z,13.00
2023-03-07T14:08:35.949Z,12.25
2023-03-07T14:11:03.987Z,15.25
2023-03-07T14:13:49.689Z,13.00
2023-03-07T14:16:37.726Z,14.00
2023-03-07T14:19:17.116Z,13.50
2023-03-07T14:21:46.751Z,13.00
2023-03-07T14:24:39.471Z,13.00
2023-03-07T14:27:13.174Z,13.50
2023-03-07T14:29:52.345Z,13.75
2023-03-07T14:32:28.661Z,12.75
2023-03-07T14:34:55.914Z,11.00
2023-03-07T14:37:28.871Z,14.00
2023-03-07T14:39:58.590Z,11.50
2023-03-07T14:42:52.840Z,13.50
2023-03-07T14:45:25.881Z,9.00
2023-03-07T14:48:29.754Z,14.00
2023-03-07T14:51:02.418Z,15.00
2023-03-07T14:53:32.550Z,14.00
2023-03-07T14:56:00.638Z,13.00
2023-03-07T14:58:30.705Z,10.00
2023-03-07T15:00:58.682Z,10.25
2023-03-07T15:03:25.828Z,12.50
2023-03-07T15:05:55.941Z,10.25
2023-03-07T15:08:24.579Z,9.25
2023-03-07T15:11:07.190Z,11.75
2023-03-07T15:13:46.068Z,18.00
2023-03-07T15:16:20.029Z,12.75
2023-03-07T15:18:53.744Z,13.00
2023-03-07T15:21:24.517Z,12.75
2023-03-07T15:23:57.106Z,12.50
2023-03-07T15:26:26.919Z,14.75
2023-03-07T15:29:09.141Z,12.75
2023-03-07T15:31:54.793Z,12.00
2023-03-07T15:34:29.157Z,13.00
2023-03-07T15:37:13.159Z,14.00
2023-03-07T15:39:40.110Z,14.00
2023-03-07T15:42:21.781Z,14.25
2023-03-07T15:45:00.390Z,10.00
2023-03-07T15:47:30.152Z,12.00
2023-03-07T15:50:03.814Z,10.00
2023-03-07T15:52:37.299Z,12.50
2023-03-07T15:55:08.478Z,9.00
2023-03-07T15:58:08.063Z,12.00
2023-03-07T16:00:38.603Z,9.50
2023-03-07T16:03:21.056Z,18.25
2023-03-07T16:05:48.113Z,18.00
2023-03-07T16:08:17.002Z,13.25
2023-03-07T16:11:12.102Z,12.50
2023-03-07T16:13:42.881Z,14.00
2023-03-07T16:16:22.069Z,7.25
2023-03-07T16:18:50.966Z,14.00
2023-03-07T16:21:19.496Z,14.25
2023-03-07T16:23:47.340Z,15.50
2023-03-07T16:26:17.613Z,12.50
2023-03-07T16:28:44.819Z,12.50
2023-03-07T16:31:13.930Z,12.00
2023-03-07T16:33:40.856Z,15.00
2023-03-07T16:36:10.412Z,15.25
2023-03-07T16:38:37.369Z,14.25
2023-03-07T16:41:06.856Z,12.75
2023-03-07T16:43:38.623Z,11.00
2023-03-07T16:46:11.366Z,10.00
2023-03-07T16:48:38.299Z,15.00
2023-03-07T16:51:05.769Z,12.00
2023-03-07T16:53:32.633Z,12.00
2023-03-07T16:55:59.721Z,11.00
2023-03-07T16:58:31.562Z,13.25
2023-03-07T17:00:59.663Z,13.50
2023-03-07T17:03:29.900Z,15.75
2023-03-07T17:05:56.819Z,16.50
2023-03-07T17:08:23.732Z,18.75
2023-03-07T17:10:50.655Z,17.75
2023-03-07T17:13:18.987Z,17.25
2023-03-07T17:15:47.252Z,20.75
2023-03-07T17:18:14.222Z,17.75
2023-03-07T17:20:41.747Z,15.75
2023-03-07T17:23:08.953Z,15.00
2023-03-07T17:25:35.976Z,16.00
2023-03-07T17:28:07.442Z,16.00
2023-03-07T17:30:34.790Z,21.75
2023-03-07T17:33:01.709Z,21.00
2023-03-07T17:35:30.700Z,17.25
2023-03-07T17:37:57.843Z,15.75
2023-03-07T17:40:24.749Z,15.50
2023-03-07T17:42:52.432Z,20.75
2023-03-07T17:45:19.405Z,16.00
2023-03-07T17:47:50.546Z,18.25
2023-03-07T17:50:19.681Z,15.00
2023-03-07T17:52:46.610Z,16.75
2023-03-07T17:55:15.241Z,14.50
2023-03-07T17:57:42.255Z,15.25
2023-03-07T18:00:13.369Z,14.75
2023-03-07T18:02:44.324Z,14.50
2023-03-07T18:05:13.340Z,12.75
2023-03-07T18:07:43.294Z,16.75
2023-03-07T18:10:13.113Z,13.75
2023-03-07T18:12:40.270Z,15.00
2023-03-07T18:15:13.199Z,12.00
2023-03-07T18:17:47.834Z,17.50
2023-03-07T18:20:18.702Z,16.25
2023-03-07T18:22:46.328Z,14.00
2023-03-07T18:25:15.749Z,17.00
2023-03-07T18:27:43.188Z,13.00
2023-03-07T18:30:12.093Z,11.00
2023-03-07T18:32:39.371Z,12.75
2023-03-07T18:35:07.018Z,3.50
2023-03-07T18:37:34.055Z,12.00
2023-03-07T18:40:01.127Z,8.50
2023-03-07T18:42:28.179Z,14.50
2023-03-07T18:44:55.076Z,12.00
2023-03-07T18:47:21.950Z,15.00
2023-03-07T18:49:51.361Z,12.75
2023-03-07T18:52:19.022Z,13.75
2023-03-07T18:54:45.967Z,15.50
2023-03-07T18:57:12.868Z,19.25
2023-03-07T18:59:39.825Z,16.50
2023-03-07T19:02:06.781Z,17.50
2023-03-07T19:04:33.701Z,15.00
2023-03-07T19:07:00.857Z,11.75
2023-03-07T19:09:28.022Z,11.00
2023-03-07T19:11:55.030Z,12.25
2023-03-07T19:14:22.029Z,13.25
2023-03-07T19:16:49.095Z,11.25
2023-03-07T19:19:16.312Z,15.00
2023-03-07T19:21:43.229Z,13.75
2023-03-07T19:24:12.193Z,21.25
2023-03-07T19:26:40.323Z,19.50
2023-03-07T19:29:07.265Z,23.00
2023-03-07T19:31:35.263Z,23.50
2023-03-07T19:34:03.695Z,20.75
2023-03-07T19:36:33.201Z,16.50
2023-03-07T19:39:00.128Z,18.00
2023-03-07T19:41:29.405Z,22.00
2023-03-07T19:43:58.255Z,20.00
2023-03-07T19:46:25.984Z,20.75
2023-03-07T19:48:53.629Z,17.25
2023-03-07T19:51:23.153Z,17.75
2023-03-07T19:53:50.903Z,16.00
2023-03-07T19:56:25.711Z,17.00
2023-03-07T19:58:52.697Z,16.25
2023-03-07T20:01:21.236Z,16.50
2023-03-07T20:03:48.664Z,19.00
2023-03-07T20:06:22.124Z,19.50
2023-03-07T20:08:50.185Z,14.00
2023-03-07T20:11:20.175Z,17.25
2023-03-07T20:13:48.529Z,17.25
2023-03-07T20:16:17.134Z,12.75
2023-03-07T20:18:44.673Z,12.00
2023-03-07T20:21:13.996Z,15.25
2023-03-07T20:23:44.974Z,16.25
2023-03-07T20:26:16.003Z,15.00
2023-03-07T20:28:43.483Z,13.00
2023-03-07T20:31:11.027Z,14.75
2023-03-07T20:33:46.285Z,16.00
2023-03-07T20:36:28.240Z,10.25
2023-03-07T20:38:57.652Z,2.00
2023-03-07T20:41:27.110Z,13.25
2023-03-07T20:43:57.143Z,13.25
2023-03-07T20:46:24.113Z,13.00
2023-03-07T20:48:54.764Z,12.00
2023-03-07T20:51:24.629Z,10.25
2023-03-07T20:53:54.887Z,14.50
2023-03-07T20:56:23.349Z,15.00
2023-03-07T20:58:50.762Z,13.00
2023-03-07T21:01:19.429Z,12.00
2023-03-07T21:03:48.313Z,7.25
2023-03-07T21:06:16.318Z,15.50
2023-03-07T21:08:43.978Z,14.75
2023-03-07T21:11:13.277Z,11.00
2023-03-07T21:13:42.770Z,11.25
2023-03-07T21:16:23.649Z,12.25
2023-03-07T21:18:50.565Z,11.00
2023-03-07T21:21:20.125Z,11.00
2023-03-07T21:23:47.371Z,11.25
2023-03-07T21:26:17.075Z,8.00
2023-03-07T21:28:44.725Z,7.00
2023-03-07T21:31:14.324Z,8.00
2023-03-07T21:33:44.149Z,11.00
2023-03-07T21:36:14.084Z,10.00
2023-03-07T21:38:41.436Z,7.50
2023-03-07T21:41:08.767Z,8.75
2023-03-07T21:43:35.938Z,10.50
2023-03-07T21:46:07.353Z,12.00
2023-03-07T21:48:34.869Z,11.00
2023-03-07T21:51:02.445Z,14.00
2023-03-07T21:53:29.685Z,13.00
2023-03-07T21:55:58.214Z,13.00
2023-03-07T21:58:25.557Z,14.25
2023-03-07T22:00:55.392Z,15.00
2023-03-07T22:03:24.047Z,15.50
2023-03-07T22:05:51.843Z,11.00
2023-03-07T22:08:20.858Z,12.75
2023-03-07T22:11:02.085Z,15.00
2023-03-07T22:13:29.909Z,11.75
2023-03-07T22:15:57.871Z,12.25
2023-03-07T22:18:25.467Z,8.00
2023-03-07T22:20:52.905Z,11.75
2023-03-07T22:23:19.821Z,11.25
2023-03-07T22:25:46.846Z,11.50
2023-03-07T22:28:16.894Z,11.00
2023-03-07T22:30:43.807Z,11.00
2023-03-07T22:33:10.969Z,13.00
2023-03-07T22:35:37.888Z,11.75
2023-03-07T22:38:04.815Z,15.00
2023-03-07T22:40:31.725Z,14.25
2023-03-07T22:42:58.580Z,12.50
2023-03-07T22:45:25.536Z,11.75
2023-03-07T22:47:52.440Z,12.25
2023-03-07T22:50:19.410Z,9.50
2023-03-07T22:52:46.271Z,12.25
2023-03-07T22:55:13.179Z,12.00
2023-03-07T22:57:40.068Z,7.75
2023-03-07T23:00:08.398Z,7.75
2023-03-07T23:02:35.295Z,10.00
2023-03-07T23:05:02.223Z,8.00
2023-03-07T23:07:29.175Z,8.00
2023-03-07T23:09:56.042Z,12.50
2023-03-07T23:12:22.944Z,11.00
2023-03-07T23:14:49.856Z,15.50
2023-03-07T23:17:16.727Z,13.00
2023-03-07T23:19:43.641Z,12.25
2023-03-07T23:22:10.621Z,10.50
2023-03-07T23:24:37.516Z,18.75
2023-03-07T23:27:04.524Z,12.50
2023-03-07T23:29:31.432Z,20.00
2023-03-07T23:31:58.751Z,22.25
2023-03-07T23:34:25.603Z,19.50
2023-03-07T23:36:52.506Z,21.00
2023-03-07T23:39:19.632Z,18.00
2023-03-07T23:41:46.615Z,20.25
2023-03-07T23:44:13.646Z,24.00
2023-03-07T23:46:40.634Z,19.75
2023-03-07T23:49:07.529Z,18.25
2023-03-07T23:51:34.541Z,11.75
2023-03-07T23:54:01.423Z,21.00
2023-03-07T23:56:28.514Z,16.25
2023-03-07T23:58:55.430Z,20.50
